sensor_id;sensor_type;location;lat;lon;timestamp;pressure;altitude;pressure_sealevel;temperature;humidity
73842;BME280;62184;52.006;5.924;2022-12-10T00:01:40;100108.47;;;-0.25;73.11
73842;BME280;62184;52.006;5.924;2022-12-10T00:04:11;100104.97;;;-0.24;73.24
73842;BME280;62184;52.006;5.924;2022-12-10T00:06:39;100101.50;;;-0.21;73.23
73842;BME280;62184;52.006;5.924;2022-12-10T00:09:09;100104.13;;;-0.21;72.88
73842;BME280;62184;52.006;5.924;2022-12-10T00:11:37;100104.97;;;-0.24;73.05
73842;BME280;62184;52.006;5.924;2022-12-10T00:14:05;100111.09;;;-0.25;72.93
73842;BME280;62184;52.006;5.924;2022-12-10T00:16:33;100114.56;;;-0.29;73.04
73842;BME280;62184;52.006;5.924;2022-12-10T00:19:00;100104.06;;;-0.32;73.33
73842;BME280;62184;52.006;5.924;2022-12-10T00:21:32;100092.69;;;-0.34;73.19
73842;BME280;62184;52.006;5.924;2022-12-10T00:24:00;100099.66;;;-0.36;73.54
73842;BME280;62184;52.006;5.924;2022-12-10T00:26:30;100101.41;;;-0.36;73.52
73842;BME280;62184;52.006;5.924;2022-12-10T00:29:00;100100.50;;;-0.38;73.44
73842;BME280;62184;52.006;5.924;2022-12-10T00:31:29;100107.50;;;-0.39;73.60
73842;BME280;62184;52.006;5.924;2022-12-10T00:33:59;100103.09;;;-0.41;73.50
73842;BME280;62184;52.006;5.924;2022-12-10T00:36:31;100115.38;;;-0.39;73.92
73842;BME280;62184;52.006;5.924;2022-12-10T00:38:59;100109.25;;;-0.39;73.91
73842;BME280;62184;52.006;5.924;2022-12-10T00:41:26;100112.75;;;-0.39;73.64
73842;BME280;62184;52.006;5.924;2022-12-10T00:43:53;100100.47;;;-0.41;73.75
73842;BME280;62184;52.006;5.924;2022-12-10T00:46:19;100105.72;;;-0.41;73.68
73842;BME280;62184;52.006;5.924;2022-12-10T00:48:46;100109.22;;;-0.41;73.85
73842;BME280;62184;52.006;5.924;2022-12-10T00:51:14;100103.97;;;-0.41;73.80
73842;BME280;62184;52.006;5.924;2022-12-10T00:53:46;100107.47;;;-0.43;73.65
73842;BME280;62184;52.006;5.924;2022-12-10T00:56:19;100104.84;;;-0.45;73.71
73842;BME280;62184;52.006;5.924;2022-12-10T00:58:48;100110.09;;;-0.45;73.69
73842;BME280;62184;52.006;5.924;2022-12-10T01:01:17;100120.56;;;-0.46;73.41
73842;BME280;62184;52.006;5.924;2022-12-10T01:03:48;100114.44;;;-0.50;73.74
73842;BME280;62184;52.006;5.924;2022-12-10T01:06:20;100120.53;;;-0.51;73.79
73842;BME280;62184;52.006;5.924;2022-12-10T01:08:52;100117.91;;;-0.49;73.83
73842;BME280;62184;52.006;5.924;2022-12-10T01:11:23;100122.31;;;-0.47;73.82
73842;BME280;62184;52.006;5.924;2022-12-10T01:13:52;100113.56;;;-0.46;73.58
73842;BME280;62184;52.006;5.924;2022-12-10T01:16:20;100120.56;;;-0.46;73.56
73842;BME280;62184;52.006;5.924;2022-12-10T01:18:48;100124.03;;;-0.50;73.37
73842;BME280;62184;52.006;5.924;2022-12-10T01:21:16;100110.91;;;-0.52;73.66
73842;BME280;62184;52.006;5.924;2022-12-10T01:23:45;100125.75;;;-0.54;73.59
73842;BME280;62184;52.006;5.924;2022-12-10T01:26:19;100124.00;;;-0.53;73.47
73842;BME280;62184;52.006;5.924;2022-12-10T01:28:48;100123.97;;;-0.55;73.78
73842;BME280;62184;52.006;5.924;2022-12-10T01:31:17;100130.13;;;-0.53;73.75
73842;BME280;62184;52.006;5.924;2022-12-10T01:33:44;100127.50;;;-0.53;73.60
73842;BME280;62184;52.006;5.924;2022-12-10T01:36:15;100128.38;;;-0.54;73.56
73842;BME280;62184;52.006;5.924;2022-12-10T01:38:45;100131.84;;;-0.55;73.73
73842;BME280;62184;52.006;5.924;2022-12-10T01:41:17;100130.13;;;-0.53;73.49
73842;BME280;62184;52.006;5.924;2022-12-10T01:43:54;100125.78;;;-0.52;73.64
73842;BME280;62184;52.006;5.924;2022-12-10T01:46:24;100127.50;;;-0.53;73.47
73842;BME280;62184;52.006;5.924;2022-12-10T01:48:52;100128.38;;;-0.54;73.46
73842;BME280;62184;52.006;5.924;2022-12-10T01:51:19;100133.63;;;-0.54;73.49
73842;BME280;62184;52.006;5.924;2022-12-10T01:53:48;100134.47;;;-0.55;73.29
73842;BME280;62184;52.006;5.924;2022-12-10T01:56:19;100130.97;;;-0.55;73.28
73842;BME280;62184;52.006;5.924;2022-12-10T01:58:47;100132.72;;;-0.54;73.37
73842;BME280;62184;52.006;5.924;2022-12-10T02:01:23;100137.09;;;-0.55;73.34
73842;BME280;62184;52.006;5.924;2022-12-10T02:04:01;100138.88;;;-0.54;73.18
73842;BME280;62184;52.006;5.924;2022-12-10T02:06:53;100136.22;;;-0.55;73.35
73842;BME280;62184;52.006;5.924;2022-12-10T02:09:29;100138.81;;;-0.57;73.38
73842;BME280;62184;52.006;5.924;2022-12-10T02:12:10;100138.81;;;-0.57;73.54
73842;BME280;62184;52.006;5.924;2022-12-10T02:14:50;100140.56;;;-0.57;73.28
73842;BME280;62184;52.006;5.924;2022-12-10T02:17:26;100130.09;;;-0.59;73.41
73842;BME280;62184;52.006;5.924;2022-12-10T02:20:09;100137.06;;;-0.58;73.31
73842;BME280;62184;52.006;5.924;2022-12-10T02:22:44;100139.69;;;-0.58;73.04
73842;BME280;62184;52.006;5.924;2022-12-10T02:25:17;100140.56;;;-0.59;73.04
73842;BME280;62184;52.006;5.924;2022-12-10T02:27:54;100135.28;;;-0.62;73.25
73842;BME280;62184;52.006;5.924;2022-12-10T02:30:32;100137.03;;;-0.63;73.05
73842;BME280;62184;52.006;5.924;2022-12-10T02:33:01;100139.63;;;-0.64;73.22
73842;BME280;62184;52.006;5.924;2022-12-10T02:35:33;100136.13;;;-0.66;72.96
73842;BME280;62184;52.006;5.924;2022-12-10T02:38:06;100129.97;;;-0.70;73.07
73842;BME280;62184;52.006;5.924;2022-12-10T02:40:38;100137.88;;;-0.68;73.06
73842;BME280;62184;52.006;5.924;2022-12-10T02:43:12;100135.25;;;-0.68;73.30
73842;BME280;62184;52.006;5.924;2022-12-10T02:45:43;100132.59;;;-0.71;73.23
73842;BME280;62184;52.006;5.924;2022-12-10T02:48:12;100133.44;;;-0.72;73.34
73842;BME280;62184;52.006;5.924;2022-12-10T02:50:39;100132.53;;;-0.74;73.48
73842;BME280;62184;52.006;5.924;2022-12-10T02:53:06;100128.19;;;-0.75;73.44
73842;BME280;62184;52.006;5.924;2022-12-10T02:55:54;100126.41;;;-0.78;73.65
73842;BME280;62184;52.006;5.924;2022-12-10T02:58:35;100128.19;;;-0.75;73.71
73842;BME280;62184;52.006;5.924;2022-12-10T03:01:21;100139.56;;;-0.73;73.86
73842;BME280;62184;52.006;5.924;2022-12-10T03:04:01;100131.69;;;-0.73;73.79
73842;BME280;62184;52.006;5.924;2022-12-10T03:06:38;100129.03;;;-0.75;73.68
73842;BME280;62184;52.006;5.924;2022-12-10T03:09:14;100134.28;;;-0.75;73.92
73842;BME280;62184;52.006;5.924;2022-12-10T03:11:46;100129.06;;;-0.73;73.81
73842;BME280;62184;52.006;5.924;2022-12-10T03:14:25;100133.44;;;-0.74;73.99
73842;BME280;62184;52.006;5.924;2022-12-10T03:16:58;100126.47;;;-0.70;74.04
73842;BME280;62184;52.006;5.924;2022-12-10T03:19:30;100128.25;;;-0.68;73.95
73842;BME280;62184;52.006;5.924;2022-12-10T03:22:03;100122.16;;;-0.67;73.45
73842;BME280;62184;52.006;5.924;2022-12-10T03:24:32;100126.53;;;-0.67;73.33
73842;BME280;62184;52.006;5.924;2022-12-10T03:27:03;100115.13;;;-0.69;73.24
73842;BME280;62184;52.006;5.924;2022-12-10T03:29:36;100113.38;;;-0.70;73.20
73842;BME280;62184;52.006;5.924;2022-12-10T03:32:15;100122.97;;;-0.71;73.63
73842;BME280;62184;52.006;5.924;2022-12-10T03:34:44;100126.47;;;-0.70;73.38
73842;BME280;62184;52.006;5.924;2022-12-10T03:37:12;100122.09;;;-0.73;73.25
73842;BME280;62184;52.006;5.924;2022-12-10T03:39:40;100120.34;;;-0.72;73.14
73842;BME280;62184;52.006;5.924;2022-12-10T03:42:08;100122.09;;;-0.73;73.27
73842;BME280;62184;52.006;5.924;2022-12-10T03:44:38;100127.34;;;-0.71;73.33
73842;BME280;62184;52.006;5.924;2022-12-10T03:47:06;100125.59;;;-0.71;72.94
73842;BME280;62184;52.006;5.924;2022-12-10T03:49:40;100123.81;;;-0.73;72.86
73842;BME280;62184;52.006;5.924;2022-12-10T03:52:07;100117.66;;;-0.78;72.95
73842;BME280;62184;52.006;5.924;2022-12-10T03:54:34;100124.63;;;-0.80;73.46
73842;BME280;62184;52.006;5.924;2022-12-10T03:57:01;100123.75;;;-0.81;73.13
73842;BME280;62184;52.006;5.924;2022-12-10T03:59:28;100127.25;;;-0.83;73.39
73842;BME280;62184;52.006;5.924;2022-12-10T04:01:54;100130.72;;;-0.84;73.54
73842;BME280;62184;52.006;5.924;2022-12-10T04:04:21;100129.88;;;-0.83;73.50
73842;BME280;62184;52.006;5.924;2022-12-10T04:06:50;100132.50;;;-0.80;73.10
73842;BME280;62184;52.006;5.924;2022-12-10T04:09:17;100133.38;;;-0.80;73.10
73842;BME280;62184;52.006;5.924;2022-12-10T04:11:43;100143.03;;;-0.77;73.17
73842;BME280;62184;52.006;5.924;2022-12-10T04:14:10;100128.19;;;-0.75;73.32
73842;BME280;62184;52.006;5.924;2022-12-10T04:16:38;100130.84;;;-0.71;73.42
73842;BME280;62184;52.006;5.924;2022-12-10T04:19:08;100128.28;;;-0.63;73.66
73842;BME280;62184;52.006;5.924;2022-12-10T04:21:37;100136.25;;;-0.54;73.69
73842;BME280;62184;52.006;5.924;2022-12-10T04:24:08;100138.03;;;-0.51;73.63
73842;BME280;62184;52.006;5.924;2022-12-10T04:26:35;100143.25;;;-0.51;73.72
73842;BME280;62184;52.006;5.924;2022-12-10T04:29:09;100137.13;;;-0.49;74.09
73842;BME280;62184;52.006;5.924;2022-12-10T04:31:35;100143.28;;;-0.47;74.18
73842;BME280;62184;52.006;5.924;2022-12-10T04:34:02;100136.34;;;-0.42;74.18
73842;BME280;62184;52.006;5.924;2022-12-10T04:36:28;100143.41;;;-0.35;74.29
73842;BME280;62184;52.006;5.924;2022-12-10T04:38:55;100145.19;;;-0.29;74.19
73842;BME280;62184;52.006;5.924;2022-12-10T04:41:24;100133.84;;;-0.27;74.34
73842;BME280;62184;52.006;5.924;2022-12-10T04:43:51;100132.97;;;-0.26;74.27
73842;BME280;62184;52.006;5.924;2022-12-10T04:46:18;100130.38;;;-0.19;74.18
73842;BME280;62184;52.006;5.924;2022-12-10T04:48:46;100134.78;;;-0.15;74.27
73842;BME280;62184;52.006;5.924;2022-12-10T04:51:12;100134.81;;;-0.11;74.08
73842;BME280;62184;52.006;5.924;2022-12-10T04:53:39;100133.97;;;-0.08;73.66
73842;BME280;62184;52.006;5.924;2022-12-10T04:56:06;100134.78;;;-0.14;73.69
73842;BME280;62184;52.006;5.924;2022-12-10T04:58:35;100141.78;;;-0.17;73.90
73842;BME280;62184;52.006;5.924;2022-12-10T05:01:02;100139.16;;;-0.17;73.94
73842;BME280;62184;52.006;5.924;2022-12-10T05:03:30;100151.41;;;-0.13;74.27
73842;BME280;62184;52.006;5.924;2022-12-10T05:06:00;100154.97;;;-0.08;74.03
73842;BME280;62184;52.006;5.924;2022-12-10T05:08:27;100159.34;;;-0.04;74.10
73842;BME280;62184;52.006;5.924;2022-12-10T05:10:54;100155.91;;;-0.00;73.96
73842;BME280;62184;52.006;5.924;2022-12-10T05:13:20;100156.78;;;0.05;74.17
73842;BME280;62184;52.006;5.924;2022-12-10T05:15:49;100150.69;;;0.09;73.95
73842;BME280;62184;52.006;5.924;2022-12-10T05:18:16;100152.41;;;0.04;73.94
73842;BME280;62184;52.006;5.924;2022-12-10T05:20:42;100154.13;;;-0.03;74.14
73842;BME280;62184;52.006;5.924;2022-12-10T05:23:09;100155.84;;;-0.05;74.30
73842;BME280;62184;52.006;5.924;2022-12-10T05:25:35;100154.06;;;-0.07;74.33
73842;BME280;62184;52.006;5.924;2022-12-10T05:28:02;100154.97;;;-0.07;74.25
73842;BME280;62184;52.006;5.924;2022-12-10T05:30:28;100169.81;;;-0.07;74.31
73842;BME280;62184;52.006;5.924;2022-12-10T05:32:57;100166.34;;;-0.06;74.37
73842;BME280;62184;52.006;5.924;2022-12-10T05:35:24;100168.06;;;-0.11;74.17
73842;BME280;62184;52.006;5.924;2022-12-10T05:37:50;100160.16;;;-0.17;74.32
73842;BME280;62184;52.006;5.924;2022-12-10T05:40:17;100155.78;;;-0.17;74.55
73842;BME280;62184;52.006;5.924;2022-12-10T05:42:43;100150.50;;;-0.18;74.46
73842;BME280;62184;52.006;5.924;2022-12-10T05:45:10;100151.38;;;-0.21;74.55
73842;BME280;62184;52.006;5.924;2022-12-10T05:47:36;100149.59;;;-0.25;74.67
73842;BME280;62184;52.006;5.924;2022-12-10T05:50:06;100155.72;;;-0.23;74.69
73842;BME280;62184;52.006;5.924;2022-12-10T05:52:33;100165.41;;;-0.17;74.80
73842;BME280;62184;52.006;5.924;2022-12-10T05:54:59;100161.03;;;-0.14;74.58
73842;BME280;62184;52.006;5.924;2022-12-10T05:57:25;100155.75;;;-0.15;74.73
73842;BME280;62184;52.006;5.924;2022-12-10T05:59:52;100160.16;;;-0.17;74.57
73842;BME280;62184;52.006;5.924;2022-12-10T06:02:18;100155.78;;;-0.17;74.75
73842;BME280;62184;52.006;5.924;2022-12-10T06:04:45;100154.03;;;-0.16;74.69
73842;BME280;62184;52.006;5.924;2022-12-10T06:07:14;100156.66;;;-0.16;74.66
73842;BME280;62184;52.006;5.924;2022-12-10T06:09:40;100161.91;;;-0.18;74.70
73842;BME280;62184;52.006;5.924;2022-12-10T06:12:07;100155.75;;;-0.15;74.66
73842;BME280;62184;52.006;5.924;2022-12-10T06:14:33;100161.97;;;-0.09;74.81
73842;BME280;62184;52.006;5.924;2022-12-10T06:17:00;100149.78;;;-0.01;74.76
73842;BME280;62184;52.006;5.924;2022-12-10T06:19:26;100151.53;;;0.05;74.62
73842;BME280;62184;52.006;5.924;2022-12-10T06:21:53;100157.69;;;0.07;74.30
73842;BME280;62184;52.006;5.924;2022-12-10T06:24:22;100159.41;;;0.05;74.29
73842;BME280;62184;52.006;5.924;2022-12-10T06:26:48;100160.31;;;0.07;74.11
73842;BME280;62184;52.006;5.924;2022-12-10T06:29:15;100163.78;;;-0.00;74.22
73842;BME280;62184;52.006;5.924;2022-12-10T06:31:41;100154.16;;;0.00;74.29
73842;BME280;62184;52.006;5.924;2022-12-10T06:34:08;100155.91;;;-0.00;74.08
73842;BME280;62184;52.006;5.924;2022-12-10T06:36:34;100156.78;;;0.00;74.32
73842;BME280;62184;52.006;5.924;2022-12-10T06:39:01;100165.50;;;0.01;74.09
73842;BME280;62184;52.006;5.924;2022-12-10T06:41:30;100158.53;;;0.04;74.14
73842;BME280;62184;52.006;5.924;2022-12-10T06:43:57;100175.19;;;0.08;73.98
73842;BME280;62184;52.006;5.924;2022-12-10T06:46:24;100174.31;;;0.06;73.68
73842;BME280;62184;52.006;5.924;2022-12-10T06:48:52;100173.41;;;0.04;73.93
73842;BME280;62184;52.006;5.924;2022-12-10T06:51:18;100181.28;;;0.04;74.02
73842;BME280;62184;52.006;5.924;2022-12-10T06:53:46;100182.16;;;0.04;73.96
73842;BME280;62184;52.006;5.924;2022-12-10T06:56:14;100176.94;;;0.09;74.07
73842;BME280;62184;52.006;5.924;2022-12-10T06:58:45;100182.22;;;0.13;73.71
73842;BME280;62184;52.006;5.924;2022-12-10T07:01:14;100189.22;;;0.08;73.69
73842;BME280;62184;52.006;5.924;2022-12-10T07:03:43;100196.22;;;0.08;73.64
73842;BME280;62184;52.006;5.924;2022-12-10T07:06:11;100198.81;;;0.05;73.29
73842;BME280;62184;52.006;5.924;2022-12-10T07:08:38;100199.63;;;0.01;73.76
73842;BME280;62184;52.006;5.924;2022-12-10T07:11:05;100196.16;;;0.00;73.47
73842;BME280;62184;52.006;5.924;2022-12-10T07:13:32;100189.13;;;0.01;73.72
73842;BME280;62184;52.006;5.924;2022-12-10T07:16:03;100193.59;;;0.08;73.82
73842;BME280;62184;52.006;5.924;2022-12-10T07:18:37;100198.84;;;0.12;73.59
73842;BME280;62184;52.006;5.924;2022-12-10T07:21:12;100211.06;;;0.10;73.50
73842;BME280;62184;52.006;5.924;2022-12-10T07:23:40;100214.50;;;0.02;73.52
73842;BME280;62184;52.006;5.924;2022-12-10T07:26:06;100219.72;;;-0.06;73.53
73842;BME280;62184;52.006;5.924;2022-12-10T07:28:33;100217.94;;;-0.11;73.60
73842;BME280;62184;52.006;5.924;2022-12-10T07:31:03;100223.13;;;-0.16;73.45
73842;BME280;62184;52.006;5.924;2022-12-10T07:33:32;100212.63;;;-0.17;73.70
73842;BME280;62184;52.006;5.924;2022-12-10T07:36:02;100225.75;;;-0.16;73.54
73842;BME280;62184;52.006;5.924;2022-12-10T07:38:29;100226.59;;;-0.20;73.63
73842;BME280;62184;52.006;5.924;2022-12-10T07:40:56;100231.88;;;-0.18;73.80
73842;BME280;62184;52.006;5.924;2022-12-10T07:43:22;100245.88;;;-0.13;73.53
73842;BME280;62184;52.006;5.924;2022-12-10T07:45:49;100243.22;;;-0.19;73.48
73842;BME280;62184;52.006;5.924;2022-12-10T07:48:18;100243.16;;;-0.27;73.84
73842;BME280;62184;52.006;5.924;2022-12-10T07:50:44;100239.69;;;-0.23;73.91
73842;BME280;62184;52.006;5.924;2022-12-10T07:53:11;100239.69;;;-0.23;73.65
73842;BME280;62184;52.006;5.924;2022-12-10T07:55:37;100240.59;;;-0.21;73.77
73842;BME280;62184;52.006;5.924;2022-12-10T07:58:04;100239.72;;;-0.20;73.98
73842;BME280;62184;52.006;5.924;2022-12-10T08:00:30;100247.53;;;-0.28;73.69
73842;BME280;62184;52.006;5.924;2022-12-10T08:02:56;100247.47;;;-0.31;74.07
73842;BME280;62184;52.006;5.924;2022-12-10T08:05:25;100251.84;;;-0.31;74.14
73842;BME280;62184;52.006;5.924;2022-12-10T08:07:52;100255.38;;;-0.29;74.21
73842;BME280;62184;52.006;5.924;2022-12-10T08:10:18;100256.31;;;-0.21;74.27
73842;BME280;62184;52.006;5.924;2022-12-10T08:12:45;100253.69;;;-0.23;74.11
73842;BME280;62184;52.006;5.924;2022-12-10T08:15:11;100263.34;;;-0.18;74.33
73842;BME280;62184;52.006;5.924;2022-12-10T08:17:38;100263.38;;;-0.17;74.31
73842;BME280;62184;52.006;5.924;2022-12-10T08:20:05;100261.63;;;-0.16;74.22
73842;BME280;62184;52.006;5.924;2022-12-10T08:22:35;100262.53;;;-0.13;74.24
73842;BME280;62184;52.006;5.924;2022-12-10T08:25:02;100267.78;;;-0.11;74.41
73842;BME280;62184;52.006;5.924;2022-12-10T08:27:29;100269.59;;;-0.04;74.44
73842;BME280;62184;52.006;5.924;2022-12-10T08:29:56;100272.28;;;0.03;74.28
73842;BME280;62184;52.006;5.924;2022-12-10T08:32:22;100274.97;;;0.08;74.23
73842;BME280;62184;52.006;5.924;2022-12-10T08:34:49;100274.94;;;0.09;74.16
73842;BME280;62184;52.006;5.924;2022-12-10T08:37:15;100274.09;;;0.12;74.10
73842;BME280;62184;52.006;5.924;2022-12-10T08:39:44;100279.31;;;0.09;74.23
73842;BME280;62184;52.006;5.924;2022-12-10T08:42:11;100279.34;;;0.10;74.20
73842;BME280;62184;52.006;5.924;2022-12-10T08:44:37;100284.66;;;0.20;74.48
73842;BME280;62184;52.006;5.924;2022-12-10T08:47:04;100279.44;;;0.21;74.14
73842;BME280;62184;52.006;5.924;2022-12-10T08:49:31;100286.41;;;0.18;74.02
73842;BME280;62184;52.006;5.924;2022-12-10T08:51:57;100283.75;;;0.14;74.12
73842;BME280;62184;52.006;5.924;2022-12-10T08:54:23;100295.09;;;0.12;74.22
73842;BME280;62184;52.006;5.924;2022-12-10T08:56:53;100291.63;;;0.13;74.56
73842;BME280;62184;52.006;5.924;2022-12-10T08:59:20;100286.41;;;0.16;74.52
73842;BME280;62184;52.006;5.924;2022-12-10T09:01:46;100292.53;;;0.15;74.27
73842;BME280;62184;52.006;5.924;2022-12-10T09:04:13;100292.53;;;0.15;74.61
73842;BME280;62184;52.006;5.924;2022-12-10T09:06:39;100298.72;;;0.23;74.58
73842;BME280;62184;52.006;5.924;2022-12-10T09:09:06;100296.97;;;0.27;74.59
73842;BME280;62184;52.006;5.924;2022-12-10T09:11:33;100297.84;;;0.27;74.51
73842;BME280;62184;52.006;5.924;2022-12-10T09:14:04;100295.28;;;0.33;74.52
73842;BME280;62184;52.006;5.924;2022-12-10T09:16:32;100307.56;;;0.37;74.52
73842;BME280;62184;52.006;5.924;2022-12-10T09:19:00;100303.25;;;0.45;74.20
73842;BME280;62184;52.006;5.924;2022-12-10T09:21:27;100304.19;;;0.53;74.18
73842;BME280;62184;52.006;5.924;2022-12-10T09:23:54;100302.50;;;0.59;74.24
73842;BME280;62184;52.006;5.924;2022-12-10T09:26:21;100306.81;;;0.53;73.93
73842;BME280;62184;52.006;5.924;2022-12-10T09:28:48;100314.69;;;0.50;73.94
73842;BME280;62184;52.006;5.924;2022-12-10T09:31:19;100312.06;;;0.50;74.03
73842;BME280;62184;52.006;5.924;2022-12-10T09:33:47;100312.91;;;0.51;74.10
73842;BME280;62184;52.006;5.924;2022-12-10T09:36:15;100319.06;;;0.50;74.16
73842;BME280;62184;52.006;5.924;2022-12-10T09:38:44;100313.75;;;0.45;74.06
73842;BME280;62184;52.006;5.924;2022-12-10T09:41:28;100323.41;;;0.46;74.30
73842;BME280;62184;52.006;5.924;2022-12-10T09:44:13;100320.78;;;0.51;74.34
73842;BME280;62184;52.006;5.924;2022-12-10T09:46:52;100324.31;;;0.51;74.62
73842;BME280;62184;52.006;5.924;2022-12-10T09:49:32;100319.13;;;0.58;74.48
73842;BME280;62184;52.006;5.924;2022-12-10T09:52:12;100331.38;;;0.60;74.41
73842;BME280;62184;52.006;5.924;2022-12-10T09:54:44;100326.13;;;0.59;74.50
73842;BME280;62184;52.006;5.924;2022-12-10T09:57:19;100324.38;;;0.61;74.62
73842;BME280;62184;52.006;5.924;2022-12-10T09:59:52;100321.75;;;0.58;74.59
73842;BME280;62184;52.006;5.924;2022-12-10T10:02:27;100326.13;;;0.57;74.45
73842;BME280;62184;52.006;5.924;2022-12-10T10:05:00;100325.31;;;0.66;74.73
73842;BME280;62184;52.006;5.924;2022-12-10T10:07:38;100325.38;;;0.75;74.57
73842;BME280;62184;52.006;5.924;2022-12-10T10:10:20;100335.91;;;0.81;74.72
73842;BME280;62184;52.006;5.924;2022-12-10T10:12:52;100330.69;;;0.87;74.69
73842;BME280;62184;52.006;5.924;2022-12-10T10:15:25;100334.25;;;0.92;74.50
73842;BME280;62184;52.006;5.924;2022-12-10T10:18:02;100337.78;;;1.00;74.54
73842;BME280;62184;52.006;5.924;2022-12-10T10:20:35;100336.94;;;1.06;74.13
73842;BME280;62184;52.006;5.924;2022-12-10T10:23:02;100332.53;;;1.05;74.16
73842;BME280;62184;52.006;5.924;2022-12-10T10:25:28;100330.75;;;1.02;74.00
73842;BME280;62184;52.006;5.924;2022-12-10T10:27:55;100329.91;;;1.00;74.01
73842;BME280;62184;52.006;5.924;2022-12-10T10:30:23;100333.38;;;0.96;73.76
73842;BME280;62184;52.006;5.924;2022-12-10T10:32:52;100334.25;;;0.98;74.28
73842;BME280;62184;52.006;5.924;2022-12-10T10:35:31;100335.16;;;0.99;74.21
73842;BME280;62184;52.006;5.924;2022-12-10T10:38:14;100333.41;;;0.99;74.38
73842;BME280;62184;52.006;5.924;2022-12-10T10:40:45;100327.28;;;1.06;74.42
73842;BME280;62184;52.006;5.924;2022-12-10T10:43:18;100335.22;;;1.12;74.40
73842;BME280;62184;52.006;5.924;2022-12-10T10:45:51;100337.00;;;1.19;74.37
73842;BME280;62184;52.006;5.924;2022-12-10T10:48:21;100337.00;;;1.21;74.06
73842;BME280;62184;52.006;5.924;2022-12-10T10:50:54;100335.25;;;1.23;74.26
73842;BME280;62184;52.006;5.924;2022-12-10T10:53:35;100334.38;;;1.27;74.21
73842;BME280;62184;52.006;5.924;2022-12-10T10:56:09;100338.84;;;1.34;73.88
73842;BME280;62184;52.006;5.924;2022-12-10T10:58:56;100337.06;;;1.33;73.97
73842;BME280;62184;52.006;5.924;2022-12-10T11:01:26;100329.16;;;1.32;73.83
73842;BME280;62184;52.006;5.924;2022-12-10T11:04:10;100332.69;;;1.35;73.98
73842;BME280;62184;52.006;5.924;2022-12-10T11:06:43;100337.09;;;1.39;73.85
73842;BME280;62184;52.006;5.924;2022-12-10T11:09:17;100336.22;;;1.42;73.83
73842;BME280;62184;52.006;5.924;2022-12-10T11:11:50;100334.47;;;1.41;73.54
73842;BME280;62184;52.006;5.924;2022-12-10T11:14:26;100332.69;;;1.37;73.54
73842;BME280;62184;52.006;5.924;2022-12-10T11:17:00;100328.31;;;1.34;73.67
73842;BME280;62184;52.006;5.924;2022-12-10T11:19:29;100327.44;;;1.34;73.77
73842;BME280;62184;52.006;5.924;2022-12-10T11:22:16;100321.28;;;1.33;73.99
73842;BME280;62184;52.006;5.924;2022-12-10T11:24:46;100319.53;;;1.32;73.99
73842;BME280;62184;52.006;5.924;2022-12-10T11:27:21;100321.31;;;1.39;74.34
73842;BME280;62184;52.006;5.924;2022-12-10T11:30:02;100310.81;;;1.51;74.11
73842;BME280;62184;52.006;5.924;2022-12-10T11:32:39;100307.31;;;1.54;73.97
73842;BME280;62184;52.006;5.924;2022-12-10T11:35:34;100307.34;;;1.64;73.98
73842;BME280;62184;52.006;5.924;2022-12-10T11:38:22;100304.75;;;1.67;73.58
73842;BME280;62184;52.006;5.924;2022-12-10T11:41:01;100304.72;;;1.66;73.72
73842;BME280;62184;52.006;5.924;2022-12-10T11:43:47;100311.75;;;1.72;73.98
73842;BME280;62184;52.006;5.924;2022-12-10T11:46:39;100310.91;;;1.76;73.69
73842;BME280;62184;52.006;5.924;2022-12-10T11:49:25;100303.88;;;1.76;73.50
73842;BME280;62184;52.006;5.924;2022-12-10T11:52:07;100305.59;;;1.77;73.23
73842;BME280;62184;52.006;5.924;2022-12-10T11:54:56;100305.63;;;1.73;73.38
73842;BME280;62184;52.006;5.924;2022-12-10T11:57:34;100307.34;;;1.69;73.29
73842;BME280;62184;52.006;5.924;2022-12-10T12:00:18;100311.75;;;1.65;73.41
73842;BME280;62184;52.006;5.924;2022-12-10T12:03:05;100311.72;;;1.62;73.30
73842;BME280;62184;52.006;5.924;2022-12-10T12:06:00;100310.84;;;1.59;73.44
73842;BME280;62184;52.006;5.924;2022-12-10T12:08:50;100305.56;;;1.53;73.27
73842;BME280;62184;52.006;5.924;2022-12-10T12:11:44;100306.47;;;1.58;73.44
73842;BME280;62184;52.006;5.924;2022-12-10T12:14:23;100309.09;;;1.59;73.43
73842;BME280;62184;52.006;5.924;2022-12-10T12:17:00;100310.84;;;1.57;73.40
73842;BME280;62184;52.006;5.924;2022-12-10T12:19:37;100309.06;;;1.52;73.37
73842;BME280;62184;52.006;5.924;2022-12-10T12:22:23;100306.44;;;1.50;73.57
73842;BME280;62184;52.006;5.924;2022-12-10T12:24:54;100306.41;;;1.52;73.67
73842;BME280;62184;52.006;5.924;2022-12-10T12:27:32;100314.34;;;1.55;73.84
73842;BME280;62184;52.006;5.924;2022-12-10T12:30:10;100315.22;;;1.57;73.49
73842;BME280;62184;52.006;5.924;2022-12-10T12:32:46;100317.00;;;1.58;73.61
73842;BME280;62184;52.006;5.924;2022-12-10T12:35:26;100313.50;;;1.59;73.51
73842;BME280;62184;52.006;5.924;2022-12-10T12:38:01;100317.00;;;1.64;73.68
73842;BME280;62184;52.006;5.924;2022-12-10T12:40:41;100315.25;;;1.69;73.39
73842;BME280;62184;52.006;5.924;2022-12-10T12:43:25;100311.75;;;1.70;73.30
73842;BME280;62184;52.006;5.924;2022-12-10T12:46:02;100308.22;;;1.62;73.20
73842;BME280;62184;52.006;5.924;2022-12-10T12:48:37;100314.34;;;1.56;73.04
73842;BME280;62184;52.006;5.924;2022-12-10T12:51:16;100309.94;;;1.54;73.22
73842;BME280;62184;52.006;5.924;2022-12-10T12:53:47;100305.59;;;1.59;73.52
73842;BME280;62184;52.006;5.924;2022-12-10T12:56:22;100314.38;;;1.68;73.70
73842;BME280;62184;52.006;5.924;2022-12-10T12:59:04;100305.63;;;1.79;73.60
73842;BME280;62184;52.006;5.924;2022-12-10T13:01:40;100304.78;;;1.84;73.23
73842;BME280;62184;52.006;5.924;2022-12-10T13:04:14;100307.41;;;1.83;73.11
73842;BME280;62184;52.006;5.924;2022-12-10T13:06:41;100308.25;;;1.86;73.25
73842;BME280;62184;52.006;5.924;2022-12-10T13:09:25;100308.28;;;1.89;73.26
73842;BME280;62184;52.006;5.924;2022-12-10T13:12:16;100313.56;;;1.95;73.11
73842;BME280;62184;52.006;5.924;2022-12-10T13:15:16;100310.91;;;1.95;73.10
73842;BME280;62184;52.006;5.924;2022-12-10T13:18:03;100308.25;;;1.85;72.63